sensor_id;sensor_type;location;lat;lon;timestamp;P1;durP1;ratioP1;P2;durP2;ratioP2
42294;SDS011;27947;47.556;18.718;2023-03-21T00:00:52;8.23;;;5.25;;
42294;SDS011;27947;47.556;18.718;2023-03-21T00:03:17;8.57;;;5.30;;
42294;SDS011;27947;47.556;18.718;2023-03-21T00:05:43;5.85;;;4.70;;
42294;SDS011;27947;47.556;18.718;2023-03-21T00:08:16;10.60;;;4.75;;
42294;SDS011;27947;47.556;18.718;2023-03-21T00:10:41;8.77;;;5.10;;
42294;SDS011;27947;47.556;18.718;2023-03-21T00:13:06;7.75;;;5.07;;
42294;SDS011;27947;47.556;18.718;2023-03-21T00:15:32;9.45;;;5.60;;
42294;SDS011;27947;47.556;18.718;2023-03-21T00:17:57;6.57;;;4.90;;
42294;SDS011;27947;47.556;18.718;2023-03-21T00:20:30;8.27;;;5.10;;
42294;SDS011;27947;47.556;18.718;2023-03-21T00:22:58;6.07;;;4.60;;
42294;SDS011;27947;47.556;18.718;2023-03-21T00:25:24;8.55;;;5.90;;
42294;SDS011;27947;47.556;18.718;2023-03-21T00:27:49;7.90;;;5.22;;
42294;SDS011;27947;47.556;18.718;2023-03-21T00:30:15;6.78;;;4.85;;
42294;SDS011;27947;47.556;18.718;2023-03-21T00:32:40;7.97;;;5.07;;
42294;SDS011;27947;47.556;18.718;2023-03-21T00:35:06;7.63;;;4.93;;
42294;SDS011;27947;47.556;18.718;2023-03-21T00:37:32;7.07;;;4.65;;
42294;SDS011;27947;47.556;18.718;2023-03-21T00:39:57;7.40;;;4.70;;
42294;SDS011;27947;47.556;18.718;2023-03-21T00:42:22;8.32;;;4.50;;
42294;SDS011;27947;47.556;18.718;2023-03-21T00:44:48;7.30;;;4.30;;
42294;SDS011;27947;47.556;18.718;2023-03-21T00:47:13;10.43;;;4.45;;
42294;SDS011;27947;47.556;18.718;2023-03-21T00:49:38;6.45;;;4.50;;
42294;SDS011;27947;47.556;18.718;2023-03-21T00:52:05;6.95;;;4.28;;
42294;SDS011;27947;47.556;18.718;2023-03-21T00:54:32;7.05;;;4.18;;
42294;SDS011;27947;47.556;18.718;2023-03-21T00:56:57;5.60;;;3.90;;
42294;SDS011;27947;47.556;18.718;2023-03-21T00:59:22;6.88;;;4.55;;
42294;SDS011;27947;47.556;18.718;2023-03-21T01:01:48;6.95;;;4.38;;
42294;SDS011;27947;47.556;18.718;2023-03-21T01:04:13;8.88;;;4.47;;
42294;SDS011;27947;47.556;18.718;2023-03-21T01:06:41;5.95;;;4.22;;
42294;SDS011;27947;47.556;18.718;2023-03-21T01:09:10;7.00;;;4.35;;
42294;SDS011;27947;47.556;18.718;2023-03-21T01:11:36;7.03;;;4.50;;
42294;SDS011;27947;47.556;18.718;2023-03-21T01:14:02;6.25;;;3.92;;
42294;SDS011;27947;47.556;18.718;2023-03-21T01:16:27;7.07;;;4.28;;
42294;SDS011;27947;47.556;18.718;2023-03-21T01:18:53;7.22;;;4.30;;
42294;SDS011;27947;47.556;18.718;2023-03-21T01:21:18;5.30;;;3.85;;
42294;SDS011;27947;47.556;18.718;2023-03-21T01:23:44;4.00;;;3.28;;
42294;SDS011;27947;47.556;18.718;2023-03-21T01:26:10;5.63;;;3.95;;
42294;SDS011;27947;47.556;18.718;2023-03-21T01:28:36;9.80;;;4.00;;
42294;SDS011;27947;47.556;18.718;2023-03-21T01:31:03;6.18;;;4.10;;
42294;SDS011;27947;47.556;18.718;2023-03-21T01:33:29;6.10;;;3.60;;
42294;SDS011;27947;47.556;18.718;2023-03-21T01:35:55;7.28;;;4.53;;
42294;SDS011;27947;47.556;18.718;2023-03-21T01:38:21;8.27;;;4.00;;
42294;SDS011;27947;47.556;18.718;2023-03-21T01:40:47;6.32;;;4.28;;
42294;SDS011;27947;47.556;18.718;2023-03-21T01:43:32;7.28;;;3.97;;
42294;SDS011;27947;47.556;18.718;2023-03-21T01:49:01;5.28;;;3.95;;
42294;SDS011;27947;47.556;18.718;2023-03-21T01:51:27;5.57;;;4.00;;
42294;SDS011;27947;47.556;18.718;2023-03-21T01:53:55;6.63;;;4.25;;
42294;SDS011;27947;47.556;18.718;2023-03-21T01:56:27;5.68;;;4.20;;
42294;SDS011;27947;47.556;18.718;2023-03-21T01:59:04;5.93;;;3.90;;
42294;SDS011;27947;47.556;18.718;2023-03-21T02:02:01;5.38;;;3.70;;
42294;SDS011;27947;47.556;18.718;2023-03-21T02:04:33;5.35;;;4.18;;
42294;SDS011;27947;47.556;18.718;2023-03-21T02:07:11;4.95;;;3.63;;
42294;SDS011;27947;47.556;18.718;2023-03-21T02:09:46;5.10;;;3.72;;
42294;SDS011;27947;47.556;18.718;2023-03-21T02:12:16;8.33;;;4.30;;
42294;SDS011;27947;47.556;18.718;2023-03-21T02:14:44;7.93;;;4.60;;
42294;SDS011;27947;47.556;18.718;2023-03-21T02:17:44;7.10;;;4.53;;
42294;SDS011;27947;47.556;18.718;2023-03-21T02:27:47;7.00;;;4.82;;
42294;SDS011;27947;47.556;18.718;2023-03-21T02:37:56;8.18;;;4.30;;
42294;SDS011;27947;47.556;18.718;2023-03-21T02:40:31;10.63;;;3.88;;
42294;SDS011;27947;47.556;18.718;2023-03-21T02:43:01;5.35;;;4.22;;
42294;SDS011;27947;47.556;18.718;2023-03-21T02:45:35;6.70;;;4.50;;
42294;SDS011;27947;47.556;18.718;2023-03-21T02:48:07;7.10;;;4.63;;
42294;SDS011;27947;47.556;18.718;2023-03-21T02:50:34;7.43;;;4.25;;
42294;SDS011;27947;47.556;18.718;2023-03-21T02:53:02;6.55;;;4.13;;
42294;SDS011;27947;47.556;18.718;2023-03-21T02:55:30;5.43;;;4.00;;
42294;SDS011;27947;47.556;18.718;2023-03-21T02:57:59;5.75;;;4.10;;
42294;SDS011;27947;47.556;18.718;2023-03-21T03:00:26;5.40;;;3.90;;
42294;SDS011;27947;47.556;18.718;2023-03-21T03:02:52;7.18;;;4.07;;
42294;SDS011;27947;47.556;18.718;2023-03-21T03:05:23;7.05;;;4.28;;
42294;SDS011;27947;47.556;18.718;2023-03-21T03:07:55;5.70;;;4.60;;
42294;SDS011;27947;47.556;18.718;2023-03-21T03:12:56;6.07;;;3.97;;
42294;SDS011;27947;47.556;18.718;2023-03-21T03:23:44;6.30;;;4.40;;
42294;SDS011;27947;47.556;18.718;2023-03-21T03:26:22;7.10;;;3.85;;
42294;SDS011;27947;47.556;18.718;2023-03-21T03:28:54;5.10;;;3.90;;
42294;SDS011;27947;47.556;18.718;2023-03-21T03:31:24;5.50;;;3.78;;
42294;SDS011;27947;47.556;18.718;2023-03-21T03:33:56;4.60;;;3.88;;
42294;SDS011;27947;47.556;18.718;2023-03-21T03:36:26;8.80;;;4.43;;
42294;SDS011;27947;47.556;18.718;2023-03-21T03:38:54;6.82;;;4.25;;
42294;SDS011;27947;47.556;18.718;2023-03-21T03:41:23;7.50;;;4.38;;
42294;SDS011;27947;47.556;18.718;2023-03-21T03:43:55;6.88;;;4.30;;
42294;SDS011;27947;47.556;18.718;2023-03-21T03:46:31;5.18;;;4.20;;
42294;SDS011;27947;47.556;18.718;2023-03-21T03:49:00;7.15;;;4.40;;
42294;SDS011;27947;47.556;18.718;2023-03-21T03:51:38;6.65;;;4.30;;
42294;SDS011;27947;47.556;18.718;2023-03-21T03:54:15;6.95;;;4.60;;
42294;SDS011;27947;47.556;18.718;2023-03-21T03:56:42;7.47;;;4.50;;
42294;SDS011;27947;47.556;18.718;2023-03-21T03:59:08;7.35;;;4.55;;
42294;SDS011;27947;47.556;18.718;2023-03-21T04:01:53;6.90;;;4.32;;
42294;SDS011;27947;47.556;18.718;2023-03-21T04:04:19;8.98;;;4.70;;
42294;SDS011;27947;47.556;18.718;2023-03-21T04:06:47;5.70;;;4.53;;
42294;SDS011;27947;47.556;18.718;2023-03-21T04:09:18;5.75;;;4.18;;
42294;SDS011;27947;47.556;18.718;2023-03-21T04:11:43;7.53;;;4.70;;
42294;SDS011;27947;47.556;18.718;2023-03-21T04:14:09;7.28;;;4.90;;
42294;SDS011;27947;47.556;18.718;2023-03-21T04:16:34;6.55;;;4.80;;
42294;SDS011;27947;47.556;18.718;2023-03-21T04:18:59;6.60;;;4.68;;
42294;SDS011;27947;47.556;18.718;2023-03-21T04:21:26;7.72;;;5.25;;
42294;SDS011;27947;47.556;18.718;2023-03-21T04:23:53;7.45;;;4.80;;
42294;SDS011;27947;47.556;18.718;2023-03-21T04:26:19;6.90;;;5.20;;
42294;SDS011;27947;47.556;18.718;2023-03-21T04:28:59;7.45;;;5.40;;
42294;SDS011;27947;47.556;18.718;2023-03-21T04:31:44;7.15;;;4.57;;
42294;SDS011;27947;47.556;18.718;2023-03-21T04:34:11;6.15;;;5.13;;
42294;SDS011;27947;47.556;18.718;2023-03-21T04:36:41;6.57;;;4.47;;
42294;SDS011;27947;47.556;18.718;2023-03-21T04:39:14;7.55;;;5.15;;
42294;SDS011;27947;47.556;18.718;2023-03-21T04:41:42;5.95;;;4.47;;
42294;SDS011;27947;47.556;18.718;2023-03-21T04:44:08;5.57;;;4.57;;
42294;SDS011;27947;47.556;18.718;2023-03-21T04:46:35;9.23;;;4.85;;
42294;SDS011;27947;47.556;18.718;2023-03-21T04:49:00;7.03;;;4.95;;
42294;SDS011;27947;47.556;18.718;2023-03-21T04:51:27;7.50;;;5.40;;
42294;SDS011;27947;47.556;18.718;2023-03-21T04:53:53;9.27;;;5.60;;
42294;SDS011;27947;47.556;18.718;2023-03-21T04:56:25;8.80;;;5.30;;
42294;SDS011;27947;47.556;18.718;2023-03-21T04:58:56;7.20;;;5.18;;
42294;SDS011;27947;47.556;18.718;2023-03-21T05:01:22;8.52;;;5.45;;
42294;SDS011;27947;47.556;18.718;2023-03-21T05:03:47;6.70;;;5.05;;
42294;SDS011;27947;47.556;18.718;2023-03-21T05:06:13;7.45;;;5.47;;
42294;SDS011;27947;47.556;18.718;2023-03-21T05:08:38;6.30;;;5.00;;
42294;SDS011;27947;47.556;18.718;2023-03-21T05:11:06;6.45;;;5.38;;
42294;SDS011;27947;47.556;18.718;2023-03-21T05:13:31;6.68;;;5.50;;
42294;SDS011;27947;47.556;18.718;2023-03-21T05:15:57;6.50;;;5.00;;
42294;SDS011;27947;47.556;18.718;2023-03-21T05:18:23;11.27;;;5.45;;
42294;SDS011;27947;47.556;18.718;2023-03-21T05:21:01;8.02;;;5.82;;
42294;SDS011;27947;47.556;18.718;2023-03-21T05:23:28;7.78;;;5.38;;
42294;SDS011;27947;47.556;18.718;2023-03-21T05:25:56;6.05;;;4.93;;
42294;SDS011;27947;47.556;18.718;2023-03-21T05:28:37;9.18;;;5.65;;
42294;SDS011;27947;47.556;18.718;2023-03-21T05:31:04;7.65;;;5.47;;
42294;SDS011;27947;47.556;18.718;2023-03-21T05:33:30;8.82;;;5.65;;
42294;SDS011;27947;47.556;18.718;2023-03-21T05:35:56;9.80;;;5.47;;
42294;SDS011;27947;47.556;18.718;2023-03-21T05:38:23;8.05;;;5.63;;
42294;SDS011;27947;47.556;18.718;2023-03-21T05:40:50;11.85;;;5.70;;
42294;SDS011;27947;47.556;18.718;2023-03-21T05:43:16;7.20;;;5.20;;
42294;SDS011;27947;47.556;18.718;2023-03-21T05:45:43;7.68;;;5.60;;
42294;SDS011;27947;47.556;18.718;2023-03-21T05:48:09;7.13;;;5.55;;
42294;SDS011;27947;47.556;18.718;2023-03-21T05:50:47;6.97;;;5.22;;
42294;SDS011;27947;47.556;18.718;2023-03-21T05:53:17;9.50;;;5.30;;
42294;SDS011;27947;47.556;18.718;2023-03-21T05:55:42;5.88;;;4.63;;
42294;SDS011;27947;47.556;18.718;2023-03-21T05:58:13;7.57;;;5.65;;
42294;SDS011;27947;47.556;18.718;2023-03-21T06:00:43;6.55;;;4.80;;
42294;SDS011;27947;47.556;18.718;2023-03-21T06:03:20;8.30;;;5.40;;
42294;SDS011;27947;47.556;18.718;2023-03-21T06:05:59;7.05;;;4.97;;
42294;SDS011;27947;47.556;18.718;2023-03-21T06:08:32;7.65;;;5.00;;
42294;SDS011;27947;47.556;18.718;2023-03-21T06:10:57;7.13;;;4.28;;
42294;SDS011;27947;47.556;18.718;2023-03-21T06:13:23;6.13;;;4.40;;
42294;SDS011;27947;47.556;18.718;2023-03-21T06:15:48;7.10;;;5.20;;
42294;SDS011;27947;47.556;18.718;2023-03-21T06:18:18;9.07;;;4.65;;
42294;SDS011;27947;47.556;18.718;2023-03-21T06:20:54;6.75;;;4.53;;
42294;SDS011;27947;47.556;18.718;2023-03-21T06:23:21;6.03;;;4.35;;
42294;SDS011;27947;47.556;18.718;2023-03-21T06:25:47;6.45;;;4.57;;
42294;SDS011;27947;47.556;18.718;2023-03-21T06:28:13;9.63;;;4.88;;
42294;SDS011;27947;47.556;18.718;2023-03-21T06:30:39;6.47;;;4.88;;
42294;SDS011;27947;47.556;18.718;2023-03-21T06:33:18;8.10;;;4.80;;
42294;SDS011;27947;47.556;18.718;2023-03-21T06:35:44;7.72;;;4.63;;
42294;SDS011;27947;47.556;18.718;2023-03-21T06:38:16;6.53;;;4.90;;
42294;SDS011;27947;47.556;18.718;2023-03-21T06:40:41;6.13;;;4.93;;
42294;SDS011;27947;47.556;18.718;2023-03-21T06:43:07;8.55;;;5.18;;
42294;SDS011;27947;47.556;18.718;2023-03-21T06:45:33;7.35;;;5.00;;
42294;SDS011;27947;47.556;18.718;2023-03-21T06:47:58;9.20;;;4.32;;
42294;SDS011;27947;47.556;18.718;2023-03-21T06:50:41;11.88;;;3.60;;
42294;SDS011;27947;47.556;18.718;2023-03-21T06:53:06;5.32;;;3.65;;
42294;SDS011;27947;47.556;18.718;2023-03-21T06:55:48;4.80;;;3.38;;
42294;SDS011;27947;47.556;18.718;2023-03-21T06:58:14;7.25;;;3.83;;
42294;SDS011;27947;47.556;18.718;2023-03-21T07:00:40;6.32;;;3.85;;
42294;SDS011;27947;47.556;18.718;2023-03-21T07:03:06;6.63;;;4.20;;
42294;SDS011;27947;47.556;18.718;2023-03-21T07:05:34;6.47;;;3.88;;
42294;SDS011;27947;47.556;18.718;2023-03-21T07:07:59;11.40;;;3.78;;
42294;SDS011;27947;47.556;18.718;2023-03-21T07:10:27;7.13;;;4.13;;
42294;SDS011;27947;47.556;18.718;2023-03-21T07:12:59;7.53;;;3.75;;
42294;SDS011;27947;47.556;18.718;2023-03-21T07:15:34;5.75;;;3.92;;
42294;SDS011;27947;47.556;18.718;2023-03-21T07:18:02;6.20;;;4.30;;
42294;SDS011;27947;47.556;18.718;2023-03-21T07:20:31;7.80;;;4.68;;
42294;SDS011;27947;47.556;18.718;2023-03-21T07:22:57;6.55;;;4.25;;
42294;SDS011;27947;47.556;18.718;2023-03-21T07:25:25;6.45;;;3.92;;
42294;SDS011;27947;47.556;18.718;2023-03-21T07:27:51;6.85;;;4.30;;
42294;SDS011;27947;47.556;18.718;2023-03-21T07:30:16;7.75;;;4.63;;
42294;SDS011;27947;47.556;18.718;2023-03-21T07:32:41;6.28;;;4.10;;
42294;SDS011;27947;47.556;18.718;2023-03-21T07:35:09;5.38;;;3.92;;
42294;SDS011;27947;47.556;18.718;2023-03-21T07:37:35;6.15;;;4.22;;
42294;SDS011;27947;47.556;18.718;2023-03-21T07:40:00;7.72;;;4.55;;
42294;SDS011;27947;47.556;18.718;2023-03-21T07:42:26;5.80;;;4.22;;
42294;SDS011;27947;47.556;18.718;2023-03-21T07:44:57;7.03;;;4.50;;
42294;SDS011;27947;47.556;18.718;2023-03-21T07:47:23;5.00;;;4.20;;
42294;SDS011;27947;47.556;18.718;2023-03-21T07:49:48;8.45;;;4.40;;
42294;SDS011;27947;47.556;18.718;2023-03-21T07:52:13;6.10;;;4.40;;
42294;SDS011;27947;47.556;18.718;2023-03-21T07:54:39;6.85;;;4.70;;
42294;SDS011;27947;47.556;18.718;2023-03-21T07:57:04;7.45;;;4.35;;
42294;SDS011;27947;47.556;18.718;2023-03-21T07:59:31;9.57;;;4.85;;
42294;SDS011;27947;47.556;18.718;2023-03-21T08:01:56;7.30;;;4.60;;
42294;SDS011;27947;47.556;18.718;2023-03-21T08:04:21;8.52;;;4.47;;
42294;SDS011;27947;47.556;18.718;2023-03-21T08:06:47;7.13;;;4.72;;
42294;SDS011;27947;47.556;18.718;2023-03-21T08:09:15;7.53;;;4.70;;
42294;SDS011;27947;47.556;18.718;2023-03-21T08:11:40;6.57;;;4.82;;
42294;SDS011;27947;47.556;18.718;2023-03-21T08:14:06;7.25;;;4.90;;
42294;SDS011;27947;47.556;18.718;2023-03-21T08:16:31;6.07;;;4.50;;
42294;SDS011;27947;47.556;18.718;2023-03-21T08:18:56;8.50;;;4.90;;
42294;SDS011;27947;47.556;18.718;2023-03-21T08:21:22;6.38;;;4.82;;
42294;SDS011;27947;47.556;18.718;2023-03-21T08:23:47;6.88;;;5.05;;
42294;SDS011;27947;47.556;18.718;2023-03-21T08:26:12;6.72;;;4.82;;
42294;SDS011;27947;47.556;18.718;2023-03-21T08:28:42;7.15;;;5.22;;
42294;SDS011;27947;47.556;18.718;2023-03-21T08:31:08;9.93;;;6.15;;
42294;SDS011;27947;47.556;18.718;2023-03-21T08:33:33;10.13;;;5.13;;
42294;SDS011;27947;47.556;18.718;2023-03-21T08:35:59;7.85;;;5.30;;
42294;SDS011;27947;47.556;18.718;2023-03-21T08:38:24;8.48;;;5.55;;
42294;SDS011;27947;47.556;18.718;2023-03-21T08:40:54;7.18;;;4.93;;
42294;SDS011;27947;47.556;18.718;2023-03-21T08:43:19;7.22;;;5.85;;
42294;SDS011;27947;47.556;18.718;2023-03-21T08:45:44;6.90;;;5.10;;
42294;SDS011;27947;47.556;18.718;2023-03-21T08:48:10;8.02;;;5.20;;
42294;SDS011;27947;47.556;18.718;2023-03-21T08:50:35;7.93;;;5.50;;
42294;SDS011;27947;47.556;18.718;2023-03-21T08:53:01;6.75;;;5.25;;
42294;SDS011;27947;47.556;18.718;2023-03-21T08:55:27;7.38;;;5.53;;
42294;SDS011;27947;47.556;18.718;2023-03-21T08:57:52;6.53;;;5.10;;
42294;SDS011;27947;47.556;18.718;2023-03-21T09:00:17;6.13;;;4.90;;
42294;SDS011;27947;47.556;18.718;2023-03-21T09:02:45;7.28;;;5.78;;
42294;SDS011;27947;47.556;18.718;2023-03-21T09:05:11;7.95;;;6.15;;
42294;SDS011;27947;47.556;18.718;2023-03-21T09:07:37;7.57;;;5.70;;
42294;SDS011;27947;47.556;18.718;2023-03-21T09:10:06;7.78;;;5.78;;
42294;SDS011;27947;47.556;18.718;2023-03-21T09:12:33;10.48;;;6.25;;
42294;SDS011;27947;47.556;18.718;2023-03-21T09:14:58;9.27;;;5.50;;
42294;SDS011;27947;47.556;18.718;2023-03-21T09:17:26;8.40;;;5.18;;
42294;SDS011;27947;47.556;18.718;2023-03-21T09:19:52;7.75;;;5.80;;
42294;SDS011;27947;47.556;18.718;2023-03-21T09:22:17;10.48;;;6.70;;
42294;SDS011;27947;47.556;18.718;2023-03-21T09:24:47;6.95;;;5.60;;
42294;SDS011;27947;47.556;18.718;2023-03-21T09:27:13;6.63;;;5.70;;
42294;SDS011;27947;47.556;18.718;2023-03-21T09:29:41;8.57;;;5.80;;
42294;SDS011;27947;47.556;18.718;2023-03-21T09:32:11;8.65;;;5.43;;
42294;SDS011;27947;47.556;18.718;2023-03-21T09:34:37;8.57;;;6.15;;
42294;SDS011;27947;47.556;18.718;2023-03-21T09:37:08;9.43;;;5.93;;
42294;SDS011;27947;47.556;18.718;2023-03-21T09:39:42;7.65;;;5.75;;
42294;SDS011;27947;47.556;18.718;2023-03-21T09:42:16;8.90;;;5.55;;
42294;SDS011;27947;47.556;18.718;2023-03-21T09:44:47;6.38;;;5.07;;
42294;SDS011;27947;47.556;18.718;2023-03-21T09:49:49;5.68;;;4.55;;
42294;SDS011;27947;47.556;18.718;2023-03-21T09:53:03;6.68;;;4.60;;
42294;SDS011;27947;47.556;18.718;2023-03-21T09:55:18;6.43;;;5.03;;
42294;SDS011;27947;47.556;18.718;2023-03-21T10:00:32;5.45;;;4.50;;
42294;SDS011;27947;47.556;18.718;2023-03-21T10:03:00;8.60;;;4.07;;
42294;SDS011;27947;47.556;18.718;2023-03-21T10:05:31;8.73;;;4.87;;
42294;SDS011;27947;47.556;18.718;2023-03-21T10:10:30;5.40;;;3.20;;
42294;SDS011;27947;47.556;18.718;2023-03-21T10:12:56;3.58;;;2.70;;
42294;SDS011;27947;47.556;18.718;2023-03-21T10:15:23;4.43;;;3.00;;
42294;SDS011;27947;47.556;18.718;2023-03-21T10:18:01;2.70;;;2.25;;
42294;SDS011;27947;47.556;18.718;2023-03-21T10:20:29;4.57;;;2.42;;
42294;SDS011;27947;47.556;18.718;2023-03-21T10:22:55;3.42;;;2.40;;
42294;SDS011;27947;47.556;18.718;2023-03-21T10:26:04;3.75;;;2.83;;
42294;SDS011;27947;47.556;18.718;2023-03-21T10:28:19;2.67;;;1.80;;
42294;SDS011;27947;47.556;18.718;2023-03-21T10:30:47;3.33;;;2.15;;
42294;SDS011;27947;47.556;18.718;2023-03-21T10:33:14;3.83;;;1.95;;
42294;SDS011;27947;47.556;18.718;2023-03-21T10:35:40;3.47;;;2.60;;
42294;SDS011;27947;47.556;18.718;2023-03-21T10:38:09;3.35;;;2.40;;
42294;SDS011;27947;47.556;18.718;2023-03-21T10:40:37;3.78;;;3.08;;
42294;SDS011;27947;47.556;18.718;2023-03-21T10:43:15;4.22;;;3.35;;
42294;SDS011;27947;47.556;18.718;2023-03-21T10:45:41;5.03;;;3.00;;
42294;SDS011;27947;47.556;18.718;2023-03-21T10:48:09;4.32;;;2.67;;
42294;SDS011;27947;47.556;18.718;2023-03-21T10:50:34;4.85;;;3.15;;
42294;SDS011;27947;47.556;18.718;2023-03-21T10:53:00;4.95;;;3.83;;
42294;SDS011;27947;47.556;18.718;2023-03-21T10:55:30;4.10;;;3.20;;
42294;SDS011;27947;47.556;18.718;2023-03-21T10:58:14;5.55;;;3.25;;
42294;SDS011;27947;47.556;18.718;2023-03-21T11:00:43;5.53;;;2.95;;
42294;SDS011;27947;47.556;18.718;2023-03-21T11:03:20;7.35;;;3.30;;
42294;SDS011;27947;47.556;18.718;2023-03-21T11:05:46;4.15;;;2.50;;
42294;SDS011;27947;47.556;18.718;2023-03-21T11:08:16;3.88;;;2.85;;
42294;SDS011;27947;47.556;18.718;2023-03-21T11:13:18;4.22;;;2.70;;
42294;SDS011;27947;47.556;18.718;2023-03-21T11:15:55;3.92;;;2.65;;
42294;SDS011;27947;47.556;18.718;2023-03-21T11:18:22;6.00;;;2.83;;
42294;SDS011;27947;47.556;18.718;2023-03-21T11:20:51;4.47;;;2.90;;
42294;SDS011;27947;47.556;18.718;2023-03-21T11:23:17;3.95;;;3.10;;
42294;SDS011;27947;47.556;18.718;2023-03-21T11:25:43;3.85;;;3.10;;
42294;SDS011;27947;47.556;18.718;2023-03-21T11:28:13;5.30;;;3.60;;
42294;SDS011;27947;47.556;18.718;2023-03-21T11:30:49;10.65;;;3.47;;
42294;SDS011;27947;47.556;18.718;2023-03-21T11:33:16;7.38;;;3.05;;
42294;SDS011;27947;47.556;18.718;2023-03-21T11:35:41;4.55;;;3.53;;
42294;SDS011;27947;47.556;18.718;2023-03-21T11:38:09;3.72;;;2.88;;
42294;SDS011;27947;47.556;18.718;2023-03-21T11:40:55;3.40;;;3.10;;
42294;SDS011;27947;47.556;18.718;2023-03-21T11:46:06;9.30;;;4.05;;
42294;SDS011;27947;47.556;18.718;2023-03-21T11:48:42;4.13;;;2.90;;
42294;SDS011;27947;47.556;18.718;2023-03-21T11:51:14;4.63;;;3.53;;
42294;SDS011;27947;47.556;18.718;2023-03-21T12:06:19;3.70;;;2.40;;
42294;SDS011;27947;47.556;18.718;2023-03-21T12:08:53;2.85;;;1.88;;
42294;SDS011;27947;47.556;18.718;2023-03-21T12:11:24;4.78;;;2.58;;
42294;SDS011;27947;47.556;18.718;2023-03-21T12:13:55;3.58;;;2.55;;
42294;SDS011;27947;47.556;18.718;2023-03-21T12:24:11;3.38;;;2.00;;
42294;SDS011;27947;47.556;18.718;2023-03-21T12:26:37;5.55;;;1.38;;
42294;SDS011;27947;47.556;18.718;2023-03-21T12:41:44;2.10;;;1.38;;
42294;SDS011;27947;47.556;18.718;2023-03-21T12:44:14;2.45;;;1.40;;
42294;SDS011;27947;47.556;18.718;2023-03-21T12:46:44;2.03;;;1.60;;
42294;SDS011;27947;47.556;18.718;2023-03-21T12:49:15;5.43;;;1.60;;
42294;SDS011;27947;47.556;18.718;2023-03-21T12:51:48;2.60;;;1.67;;
42294;SDS011;27947;47.556;18.718;2023-03-21T12:57:03;3.10;;;2.00;;
42294;SDS011;27947;47.556;18.718;2023-03-21T12:59:44;2.33;;;1.77;;
42294;SDS011;27947;47.556;18.718;2023-03-21T13:07:11;1.15;;;0.98;;
42294;SDS011;27947;47.556;18.718;2023-03-21T13:09:38;1.30;;;0.98;;
42294;SDS011;27947;47.556;18.718;2023-03-21T13:12:08;2.53;;;1.30;;
42294;SDS011;27947;47.556;18.718;2023-03-21T13:14:35;5.60;;;1.38;;
42294;SDS011;27947;47.556;18.718;2023-03-21T13:17:04;2.25;;;1.13;;
42294;SDS011;27947;47.556;18.718;2023-03-21T13:20:06;3.95;;;1.33;;
42294;SDS011;27947;47.556;18.718;2023-03-21T13:22:29;2.63;;;1.57;;
42294;SDS011;27947;47.556;18.718;2023-03-21T13:25:36;8.15;;;1.50;;
42294;SDS011;27947;47.556;18.718;2023-03-21T13:27:43;1.85;;;1.30;;
42294;SDS011;27947;47.556;18.718;2023-03-21T13:30:22;3.42;;;1.70;;
42294;SDS011;27947;47.556;18.718;2023-03-21T13:32:51;1.50;;;1.00;;
42294;SDS011;27947;47.556;18.718;2023-03-21T13:35:20;4.15;;;1.73;;
42294;SDS011;27947;47.556;18.718;2023-03-21T13:40:24;2.40;;;1.63;;
42294;SDS011;27947;47.556;18.718;2023-03-21T13:42:51;2.22;;;1.48;;
42294;SDS011;27947;47.556;18.718;2023-03-21T13:45:27;1.95;;;1.30;;
42294;SDS011;27947;47.556;18.718;2023-03-21T13:50:21;3.60;;;2.42;;
42294;SDS011;27947;47.556;18.718;2023-03-21T13:53:32;2.05;;;1.67;;
42294;SDS011;27947;47.556;18.718;2023-03-21T13:55:40;4.65;;;2.03;;
42294;SDS011;27947;47.556;18.718;2023-03-21T14:01:12;3.00;;;1.80;;
42294;SDS011;27947;47.556;18.718;2023-03-21T14:03:40;2.15;;;1.58;;
42294;SDS011;27947;47.556;18.718;2023-03-21T14:06:06;3.33;;;1.80;;
42294;SDS011;27947;47.556;18.718;2023-03-21T14:08:33;2.92;;;1.95;;
42294;SDS011;27947;47.556;18.718;2023-03-21T14:10:59;3.55;;;1.67;;
42294;SDS011;27947;47.556;18.718;2023-03-21T14:13:28;4.68;;;1.75;;
42294;SDS011;27947;47.556;18.718;2023-03-21T14:15:55;2.58;;;1.85;;
42294;SDS011;27947;47.556;18.718;2023-03-21T14:18:22;1.80;;;1.50;;
42294;SDS011;27947;47.556;18.718;2023-03-21T14:20:55;4.55;;;1.83;;
42294;SDS011;27947;47.556;18.718;2023-03-21T14:23:20;1.42;;;1.25;;
42294;SDS011;27947;47.556;18.718;2023-03-21T14:25:46;3.30;;;1.30;;
42294;SDS011;27947;47.556;18.718;2023-03-21T14:28:24;2.55;;;1.55;;
42294;SDS011;27947;47.556;18.718;2023-03-21T14:30:51;2.45;;;1.58;;
42294;SDS011;27947;47.556;18.718;2023-03-21T14:33:31;1.65;;;1.23;;
42294;SDS011;27947;47.556;18.718;2023-03-21T14:36:02;2.30;;;1.65;;
42294;SDS011;27947;47.556;18.718;2023-03-21T14:38:32;1.40;;;1.13;;
42294;SDS011;27947;47.556;18.718;2023-03-21T14:40:58;2.53;;;1.40;;
42294;SDS011;27947;47.556;18.718;2023-03-21T14:43:25;2.58;;;1.30;;
42294;SDS011;27947;47.556;18.718;2023-03-21T14:45:51;3.85;;;1.80;;
42294;SDS011;27947;47.556;18.718;2023-03-21T14:48:17;2.72;;;1.80;;
42294;SDS011;27947;47.556;18.718;2023-03-21T14:50:49;4.13;;;2.33;;
42294;SDS011;27947;47.556;18.718;2023-03-21T14:55:45;3.78;;;2.33;;
42294;SDS011;27947;47.556;18.718;2023-03-21T14:58:11;2.65;;;2.00;;
42294;SDS011;27947;47.556;18.718;2023-03-21T15:00:37;3.20;;;2.10;;
42294;SDS011;27947;47.556;18.718;2023-03-21T15:03:03;4.50;;;2.22;;
42294;SDS011;27947;47.556;18.718;2023-03-21T15:05:32;4.38;;;2.17;;
42294;SDS011;27947;47.556;18.718;2023-03-21T15:08:00;6.20;;;2.47;;
42294;SDS011;27947;47.556;18.718;2023-03-21T15:10:27;5.68;;;2.53;;
42294;SDS011;27947;47.556;18.718;2023-03-21T15:12:53;4.45;;;2.60;;
42294;SDS011;27947;47.556;18.718;2023-03-21T15:15:19;3.65;;;2.63;;
42294;SDS011;27947;47.556;18.718;2023-03-21T15:17:47;4.35;;;2.85;;
42294;SDS011;27947;47.556;18.718;2023-03-21T15:20:13;4.35;;;2.60;;
42294;SDS011;27947;47.556;18.718;2023-03-21T15:22:40;3.15;;;2.10;;
42294;SDS011;27947;47.556;18.718;2023-03-21T15:25:10;2.88;;;2.17;;
42294;SDS011;27947;47.556;18.718;2023-03-21T15:27:38;5.70;;;2.50;;
42294;SDS011;27947;47.556;18.718;2023-03-21T15:30:04;3.55;;;2.65;;
42294;SDS011;27947;47.556;18.718;2023-03-21T15:32:30;3.58;;;2.58;;
42294;SDS011;27947;47.556;18.718;2023-03-21T15:35:07;5.50;;;2.70;;
42294;SDS011;27947;47.556;18.718;2023-03-21T15:37:37;5.25;;;2.80;;
42294;SDS011;27947;47.556;18.718;2023-03-21T15:42:37;4.35;;;2.40;;
42294;SDS011;27947;47.556;18.718;2023-03-21T15:50:55;4.90;;;2.30;;
42294;SDS011;27947;47.556;18.718;2023-03-21T15:53:02;4.80;;;2.30;;
42294;SDS011;27947;47.556;18.718;2023-03-21T15:55:29;16.25;;;2.90;;
42294;SDS011;27947;47.556;18.718;2023-03-21T15:58:00;7.63;;;2.33;;
42294;SDS011;27947;47.556;18.718;2023-03-21T16:00:38;3.10;;;2.20;;
42294;SDS011;27947;47.556;18.718;2023-03-21T16:03:06;7.78;;;2.50;;
42294;SDS011;27947;47.556;18.718;2023-03-21T16:05:34;4.35;;;2.20;;
42294;SDS011;27947;47.556;18.718;2023-03-21T16:08:04;3.97;;;2.58;;
42294;SDS011;27947;47.556;18.718;2023-03-21T16:10:37;5.10;;;2.65;;
42294;SDS011;27947;47.556;18.718;2023-03-21T16:13:03;5.32;;;2.55;;
42294;SDS011;27947;47.556;18.718;2023-03-21T16:15:29;4.60;;;2.45;;
42294;SDS011;27947;47.556;18.718;2023-03-21T16:17:55;4.35;;;2.42;;
42294;SDS011;27947;47.556;18.718;2023-03-21T16:20:23;3.42;;;2.30;;
42294;SDS011;27947;47.556;18.718;2023-03-21T16:22:49;3.78;;;2.50;;
42294;SDS011;27947;47.556;18.718;2023-03-21T16:25:14;4.10;;;2.55;;